Wenatchee, WA (98807)

4:29 PM PDT on September 20, 2014 (GMT -0700)
Pitcher Canyon | Change Station
CLOSE
Current Station
Personal Weather Station
Location: Wenatchee, WA
Elevation: 1440 ft
Nearby Weather Stations

Elev 1440 ft 47.37 °N, 120.33 °W | Updated 18 seconds ago

Clear
Clear
85.1 °F
Feels Like 83 °F
N
2.0
Wind Variable Wind from ENE
Gusts 2.0 mph

Today
High -- | Low -- °F
--% Chance of Precip.
Yesterday
High -- | Low -- °F
Precip. -- in
6:45 AM 7:02 PM
Waning Crescent, 10% visible
Pressure 30.02 in
Visibility 10.0 miles
Clouds Clear
Heat Index 83 °F
Dew Point 48 °F
Humidity 28%
Rainfall 0.00 in
Snow Depth 0 in , 0 in , 1 in
UV 3 out of 12
Pollen 3.20 out of 12
Air Quality Not available.
Flu Activity Not available.
METAR KEAT 202255Z AUTO 31005KT 10SM CLR 29/08 A3004 RMK AO2 SLP164 T02940083

More Conditions Fewer Conditions

Pressure 30.02 in
Visibility 10.0 miles
Clouds Clear
Heat Index 83 °F
Dew Point 48 °F
Humidity 28%
Rainfall 0.00 in
Snow Depth 0 in , 0 in , 1 in
UV 3 out of 12
Pollen 3.20 out of 12
Air Quality Not available.
Flu Activity Not available.
METAR KEAT 202255Z AUTO 31005KT 10SM CLR 29/08 A3004 RMK AO2 SLP164 T02940083

More Conditions Fewer Conditions

10-Day Weather Forecast

Almanac

Astronomy

Sep. 20, 2014 Rise Set
Actual Time 6:45 AM PDT 7:02 PM PDT
Civil Twilight 6:14 AM PDT 7:33 PM PDT
Nautical Twilight 5:38 AM PDT 8:09 PM PDT
Astronomical Twilight 5:01 AM PDT 8:46 PM PDT
Moon 3:18 AM PDT 5:17 PM PDT
Length of Visible Light 13h 18m
Length of Day
12h 17m
Tomorrow will be 3m 23s shorter.
Waning Crescent, 10% of the Moon is Illuminated
Today
Waning Crescent
Sep 24
New
Oct 1
First Quarter
Oct 8
Full
Oct 15
Last Quarter

Today's Extremes

State Highs State Lows

Community

WunderPhotos

Upload Photos

1,754,978 photos uploaded!

WunderBlogs® & News

Nearby

Snow Depth

Station Depth Elevation
Sentinel Butte 0 in 4920 ft
Rainy Pass 0 in 4780 ft
Moses Mountain 1 in 5300 ft
Grouse Camp 0 in 5380 ft
Trough 0 in 5300 ft

Earthquake Activity

City Distance Mag. Time & Date
No recent earthquake activity has been reported nearby.
Minimum magnitude displayed is 2.5.

Coastal Water Temperatures

Place Temperature
No Stations Reporting

Nearby Weather Stations